»·PEaware :: N112PC KSLE-KSAC

N112PC :: KSLE-KSAC

FLIGHT INFORMATION

Flight Status: Arrived
Operator: Privately registered:
United States
More flights under this callsign
Pilot: Gabor H. (24209)
Aircraft: PILATUS PC-12 EAGLE
(PC12)
More flights by this aircraft type
Origin: KSLE McNary
United States
Destination: KSAC Sacramento Executive
United States
More flights between these airports :: More routes between these airports
Route: EUG J126 SAC
File this flight plan on PilotEdge
Remarks:
Altitude:
(Current/Filed)
27,000ft
Speed:
(Current/Filed)
260kts
Departed: 03-Jun-19 07:48 PM
Arrived: 03-Jun-19 09:24 PM
Distance/Time
Traveled:
390nm/1:36
Distance/Time
To Go:
Arrived

Flight Plot

Page will automatically refresh every two minutes.

Flight plan parsing failed; only flown route is shown


Map Options




Map Legend


Flown Route
Filed Route
Departure Airport
Arrival Airport
Navaid (VOR, NDB)
Fix

Horizontal Profiles

Position Reports

Time Latitude Longitude Heading Altitude Ground
Speed
03-Jun-19 19:37 44.906328 -123.006270 270 217ft 0kts
03-Jun-19 19:38 44.906328 -123.006270 270 217ft 0kts
03-Jun-19 19:39 44.906328 -123.006270 270 217ft 0kts
03-Jun-19 19:40 44.906328 -123.006270 270 217ft 0kts
03-Jun-19 19:41 44.906328 -123.006270 270 217ft 0kts
03-Jun-19 19:42 44.906328 -123.006270 270 217ft 0kts
03-Jun-19 19:43 44.906328 -123.006272 270 217ft 0kts
03-Jun-19 19:44 44.906402 -123.006345 51 217ft 2kts
03-Jun-19 19:45 44.904885 -123.005526 180 217ft 13kts
03-Jun-19 19:46 44.902792 -123.004668 135 217ft 4kts
03-Jun-19 19:47 44.911130 -123.003440 0 486ft 94kts
03-Jun-19 19:48 44.919527 -123.027708 221 2170ft 121kts
03-Jun-19 19:49 44.882368 -123.025323 172 3851ft 154kts
03-Jun-19 19:50 44.837967 -123.023941 189 5569ft 163kts
03-Jun-19 19:51 44.792536 -123.034848 194 7282ft 167kts
03-Jun-19 19:52 44.746476 -123.047736 195 8978ft 170kts
03-Jun-19 19:53 44.698896 -123.061091 196 10690ft 174kts
03-Jun-19 19:54 44.649985 -123.075001 196 12306ft 199kts
03-Jun-19 19:55 44.591421 -123.091495 196 13830ft 224kts
03-Jun-19 19:56 44.528784 -123.109111 197 15337ft 231kts
03-Jun-19 19:57 44.465446 -123.126840 197 16834ft 232kts
03-Jun-19 19:58 44.402312 -123.144489 198 18330ft 230kts
03-Jun-19 19:59 44.339837 -123.161935 198 19826ft 227kts
03-Jun-19 20:00 44.278409 -123.179056 199 21320ft 223kts
03-Jun-19 20:01 44.217949 -123.195889 199 22726ft 222kts
03-Jun-19 20:02 44.156331 -123.213035 199 23739ft 228kts
03-Jun-19 20:03 44.091691 -123.215613 182 24739ft 238kts
03-Jun-19 20:04 44.025973 -123.204263 181 25736ft 237kts
03-Jun-19 20:05 43.960593 -123.191894 180 26735ft 235kts
03-Jun-19 20:06 43.894131 -123.179317 180 27142ft 252kts
03-Jun-19 20:07 43.822603 -123.165675 180 27134ft 264kts
03-Jun-19 20:08 43.749262 -123.151568 179 27129ft 267kts
03-Jun-19 20:09 43.675327 -123.137394 179 27125ft 268kts
03-Jun-19 20:10 43.600992 -123.123213 179 27120ft 269kts
03-Jun-19 20:11 43.526809 -123.109111 179 27116ft 269kts
03-Jun-19 20:12 43.452550 -123.095032 179 27113ft 269kts
03-Jun-19 20:13 43.378222 -123.080975 179 27112ft 270kts
03-Jun-19 20:14 43.303819 -123.066937 179 27111ft 270kts
03-Jun-19 20:15 43.229082 -123.052882 179 27111ft 270kts
03-Jun-19 20:16 43.154576 -123.038887 179 27115ft 270kts
03-Jun-19 20:17 43.079978 -123.024916 179 27117ft 271kts
03-Jun-19 20:18 43.005330 -123.010970 179 27120ft 271kts
03-Jun-19 20:19 42.930293 -122.996975 179 27123ft 271kts
03-Jun-19 20:20 42.855403 -122.983046 178 27126ft 272kts
03-Jun-19 20:21 42.780447 -122.969122 178 27126ft 272kts
03-Jun-19 20:22 42.705387 -122.955205 178 27123ft 273kts
03-Jun-19 20:23 42.629628 -122.941174 178 27108ft 275kts
03-Jun-19 20:24 42.553778 -122.927079 178 27096ft 275kts
03-Jun-19 20:25 42.477729 -122.911466 175 27081ft 277kts
03-Jun-19 20:26 42.401872 -122.890686 173 27072ft 278kts
03-Jun-19 20:27 42.326152 -122.868537 173 27070ft 278kts
03-Jun-19 20:28 42.250423 -122.846210 173 27070ft 278kts
03-Jun-19 20:29 42.174632 -122.824453 173 27071ft 277kts
03-Jun-19 20:30 42.099148 -122.802631 173 27075ft 277kts
03-Jun-19 20:31 42.023586 -122.780723 172 27076ft 278kts
03-Jun-19 20:32 41.947946 -122.758819 172 27076ft 278kts
03-Jun-19 20:33 41.872038 -122.736848 172 27075ft 278kts
03-Jun-19 20:34 41.796334 -122.714994 172 27074ft 278kts
03-Jun-19 20:35 41.720552 -122.693171 172 27073ft 278kts
03-Jun-19 20:36 41.644727 -122.671392 172 27074ft 279kts
03-Jun-19 20:37 41.568901 -122.649666 172 27077ft 278kts
03-Jun-19 20:38 41.492886 -122.627929 172 27081ft 278kts
03-Jun-19 20:39 41.417089 -122.606308 172 27085ft 279kts
03-Jun-19 20:40 41.341212 -122.584721 171 27087ft 279kts
03-Jun-19 20:41 41.265291 -122.563172 171 27079ft 279kts
03-Jun-19 20:42 41.189308 -122.541651 171 27075ft 279kts
03-Jun-19 20:43 41.112958 -122.520081 171 27064ft 280kts
03-Jun-19 20:44 41.036666 -122.498582 171 27046ft 281kts
03-Jun-19 20:45 40.960180 -122.477077 171 27019ft 281kts
03-Jun-19 20:46 40.883554 -122.455579 171 26990ft 281kts
03-Jun-19 20:47 40.806902 -122.434115 171 26952ft 282kts
03-Jun-19 20:48 40.729838 -122.412587 170 26915ft 282kts
03-Jun-19 20:49 40.652842 -122.391123 170 26885ft 283kts
03-Jun-19 20:50 40.575918 -122.369722 170 26867ft 283kts
03-Jun-19 20:51 40.498929 -122.348329 170 26861ft 283kts
03-Jun-19 20:52 40.421875 -122.326937 170 26863ft 283kts
03-Jun-19 20:53 40.344809 -122.305594 170 26873ft 283kts
03-Jun-19 20:54 40.267482 -122.284168 169 26884ft 283kts
03-Jun-19 20:55 40.190379 -122.262730 169 26890ft 283kts
03-Jun-19 20:56 40.113316 -122.240241 167 26890ft 284kts
03-Jun-19 20:57 40.034959 -122.210549 164 26100ft 301kts
03-Jun-19 20:58 39.955055 -122.177752 163 25116ft 299kts
03-Jun-19 20:59 39.877260 -122.145157 163 24899ft 288kts
03-Jun-19 21:01 39.798766 -122.112239 163 23760ft 301kts
03-Jun-19 21:02 39.719842 -122.079193 163 22261ft 295kts
03-Jun-19 21:03 39.641835 -122.046537 163 20763ft 294kts
03-Jun-19 21:04 39.564484 -122.014220 163 19265ft 289kts
03-Jun-19 21:05 39.488704 -121.982582 163 17766ft 282kts
03-Jun-19 21:06 39.414470 -121.951653 163 16262ft 281kts
03-Jun-19 21:07 39.338722 -121.920288 162 14764ft 289kts
03-Jun-19 21:08 39.262343 -121.888753 162 13265ft 286kts
03-Jun-19 21:09 39.187321 -121.857753 162 11765ft 280kts
03-Jun-19 21:10 39.113894 -121.827374 162 10266ft 275kts
03-Jun-19 21:11 39.041688 -121.797580 163 8767ft 270kts
03-Jun-19 21:12 38.970800 -121.768407 163 7578ft 264kts
03-Jun-19 21:13 38.901571 -121.739911 163 6578ft 259kts
03-Jun-19 21:14 38.833567 -121.712090 163 5575ft 254kts
03-Jun-19 21:15 38.768661 -121.681130 141 4791ft 251kts
03-Jun-19 21:16 38.726701 -121.611528 125 4008ft 240kts
03-Jun-19 21:17 38.688556 -121.540343 125 3255ft 241kts
03-Jun-19 21:17 38.657711 -121.482708 125 2424ft 225kts
03-Jun-19 21:19 38.619371 -121.410662 126 2015ft 202kts
03-Jun-19 21:20 38.572152 -121.387359 220 2008ft 195kts
03-Jun-19 21:20 38.560517 -121.431331 258 1499ft 130kts
03-Jun-19 21:21 38.551668 -121.461866 226 1066ft 87kts
03-Jun-19 21:23 38.527501 -121.482489 212 430ft 88kts
03-Jun-19 21:24 38.513646 -121.493913 246 27ft 12kts
03-Jun-19 21:24 38.514480 -121.497671 315 27ft 16kts
03-Jun-19 21:25 38.515126 -121.499188 223 27ft 0kts
03-Jun-19 21:27 38.515126 -121.499188 223 27ft 0kts

Navigation Log

Ident Type
Flight plan parsing failed, navigation log unavailable